createdAt,value
2019-05-10T00:00:33.557Z,1.32
2019-05-10T00:05:56.727Z,2.45
2019-05-10T00:11:33.474Z,2.40
2019-05-10T00:16:38.542Z,2.12
2019-05-10T00:21:44.290Z,2.35
2019-05-10T00:26:49.639Z,3.60
2019-05-10T00:31:55.015Z,2.65
2019-05-10T00:37:00.159Z,1.60
2019-05-10T00:42:05.383Z,1.67
2019-05-10T00:47:10.883Z,2.30
2019-05-10T00:52:16.230Z,3.07
2019-05-10T00:57:21.587Z,4.50
2019-05-10T01:02:26.943Z,2.40
2019-05-10T01:07:32.914Z,1.83
2019-05-10T01:12:38.009Z,1.17
2019-05-10T01:17:43.079Z,2.52
2019-05-10T01:22:48.180Z,1.73
2019-05-10T01:27:53.405Z,2.13
2019-05-10T01:32:59.193Z,3.42
2019-05-10T01:38:05.068Z,2.07
2019-05-10T01:43:10.476Z,1.35
2019-05-10T01:48:15.469Z,2.40
2019-05-10T01:53:21.254Z,2.12
2019-05-10T01:58:26.606Z,1.87
2019-05-10T02:03:31.589Z,2.05
2019-05-10T02:08:37.219Z,2.90
2019-05-10T02:13:42.581Z,1.12
2019-05-10T02:18:48.009Z,2.33
2019-05-10T02:23:53.011Z,1.40
2019-05-10T02:28:58.086Z,1.55
2019-05-10T02:34:03.153Z,2.83
2019-05-10T02:39:09.206Z,1.85
2019-05-10T02:44:14.346Z,2.50
2019-05-10T02:49:19.504Z,2.33
2019-05-10T02:54:24.645Z,2.00
2019-05-10T02:59:30.851Z,2.33
2019-05-10T03:04:37.209Z,1.72
2019-05-10T03:09:43.703Z,2.17
2019-05-10T03:14:52.688Z,2.22
2019-05-10T03:19:59.272Z,3.20
2019-05-10T03:25:05.393Z,3.08
2019-05-10T03:30:11.307Z,2.77
2019-05-10T03:35:16.486Z,2.62
2019-05-10T03:40:21.546Z,3.20
2019-05-10T03:45:27.032Z,2.63
2019-05-10T03:50:32.682Z,3.05
2019-05-10T03:55:38.349Z,3.92
2019-05-10T04:00:43.492Z,3.75
2019-05-10T04:05:48.993Z,3.08
2019-05-10T04:10:54.738Z,3.85
2019-05-10T04:16:00.327Z,3.87
2019-05-10T04:21:05.494Z,5.50
2019-05-10T04:26:11.221Z,4.17
2019-05-10T04:31:16.673Z,5.20
2019-05-10T04:36:21.758Z,5.67
2019-05-10T04:41:26.872Z,4.72
2019-05-10T04:46:32.665Z,4.85
2019-05-10T04:51:37.980Z,4.42
2019-05-10T04:56:43.091Z,6.17
2019-05-10T05:01:48.734Z,4.60
2019-05-10T05:06:54.085Z,5.50
2019-05-10T05:11:59.439Z,6.22
2019-05-10T05:17:04.799Z,7.50
2019-05-10T05:22:10.055Z,7.37
2019-05-10T05:27:15.323Z,6.07
2019-05-10T05:32:20.679Z,6.37
2019-05-10T05:37:26.198Z,6.42
2019-05-10T05:42:31.345Z,7.03
2019-05-10T05:47:37.558Z,5.53
2019-05-10T05:52:43.843Z,5.83
2019-05-10T05:57:49.174Z,5.93
2019-05-10T06:02:54.467Z,6.13
2019-05-10T06:07:59.718Z,6.62
2019-05-10T06:13:05.190Z,7.35
2019-05-10T06:18:12.158Z,12.70
2019-05-10T06:23:17.736Z,8.30
2019-05-10T06:28:27.044Z,5.30
2019-05-10T06:33:30.197Z,11.95
2019-05-10T06:38:36.067Z,4.53
2019-05-10T06:43:45.727Z,4.85
2019-05-10T06:48:49.447Z,3.85
2019-05-10T06:53:54.779Z,4.45
2019-05-10T06:59:12.388Z,4.70
2019-05-10T07:04:06.935Z,4.33
2019-05-10T07:09:12.294Z,4.28
2019-05-10T07:14:17.459Z,4.93
2019-05-10T07:19:22.531Z,4.78
2019-05-10T07:24:28.180Z,2.92
2019-05-10T07:29:41.767Z,4.53
2019-05-10T07:34:40.887Z,3.60
2019-05-10T07:39:46.266Z,3.77
2019-05-10T07:44:52.186Z,3.83
2019-05-10T07:49:57.277Z,4.23
2019-05-10T07:55:02.902Z,3.37
2019-05-10T08:00:09.526Z,3.55
2019-05-10T08:05:15.431Z,5.15
2019-05-10T08:10:21.502Z,3.47
2019-05-10T08:15:30.540Z,3.52
2019-05-10T08:20:46.403Z,14.70
2019-05-10T08:25:46.646Z,4.50
2019-05-10T08:30:57.272Z,3.27
2019-05-10T08:36:00.630Z,5.10
2019-05-10T08:41:02.665Z,4.20
2019-05-10T08:46:08.674Z,3.95
2019-05-10T08:51:13.819Z,3.98
2019-05-10T08:56:21.646Z,2.63
2019-05-10T09:01:30.077Z,2.40
2019-05-10T09:06:32.925Z,4.42
2019-05-10T09:11:38.203Z,3.80
2019-05-10T09:16:52.771Z,4.08
2019-05-10T09:21:54.796Z,5.12
2019-05-10T09:26:57.687Z,4.80
2019-05-10T09:32:06.304Z,4.97
2019-05-10T09:37:14.536Z,3.43
2019-05-10T09:42:25.480Z,4.67
2019-05-10T09:47:24.489Z,3.40
2019-05-10T09:52:29.635Z,4.67
2019-05-10T09:57:37.827Z,4.47
2019-05-10T10:02:47.856Z,4.45
2019-05-10T10:07:49.210Z,4.85
2019-05-10T10:12:58.306Z,5.67
2019-05-10T10:18:01.603Z,4.00
2019-05-10T10:23:07.437Z,4.40
2019-05-10T10:28:17.097Z,4.70
2019-05-10T10:33:25.403Z,4.12
2019-05-10T10:38:30.597Z,5.07
2019-05-10T10:43:33.610Z,4.92
2019-05-10T10:48:43.526Z,4.30
2019-05-10T10:53:47.042Z,5.33
2019-05-10T10:58:52.559Z,3.93
2019-05-10T11:04:03.567Z,3.90
2019-05-10T11:09:07.794Z,4.62
2019-05-10T11:14:12.822Z,4.92
2019-05-10T11:19:17.887Z,5.42
2019-05-10T11:24:23.611Z,2.80
2019-05-10T11:29:30.881Z,4.00
2019-05-10T11:34:37.725Z,3.50
2019-05-10T11:39:46.895Z,4.45
2019-05-10T11:44:54.220Z,3.08
2019-05-10T11:49:56.726Z,4.00
2019-05-10T11:55:02.050Z,3.70
2019-05-10T12:00:14.200Z,3.05
2019-05-10T12:05:20.017Z,3.30
2019-05-10T12:10:25.540Z,3.60
2019-05-10T12:15:31.768Z,4.92
2019-05-10T12:20:51.590Z,4.17
2019-05-10T12:25:57.937Z,5.03
2019-05-10T12:30:51.635Z,4.90
2019-05-10T12:35:57.099Z,3.42
2019-05-10T12:41:05.370Z,4.83
2019-05-10T12:46:10.492Z,4.05
2019-05-10T12:51:16.757Z,3.08
2019-05-10T12:56:21.841Z,3.60
2019-05-10T13:01:31.740Z,3.47
2019-05-10T13:06:35.593Z,3.67
2019-05-10T13:11:40.698Z,3.12
2019-05-10T13:16:45.771Z,4.20
2019-05-10T13:21:53.792Z,3.30
2019-05-10T13:26:57.672Z,3.25
2019-05-10T13:32:02.741Z,4.12
2019-05-10T13:37:13.599Z,9.07
2019-05-10T13:42:15.255Z,7.20
2019-05-10T13:47:20.640Z,4.12
2019-05-10T13:52:29.829Z,5.13
2019-05-10T13:57:32.769Z,5.37
2019-05-10T14:02:38.356Z,5.25
2019-05-10T14:07:51.275Z,7.17
2019-05-10T14:12:55.893Z,6.67
2019-05-10T14:17:57.987Z,15.72
2019-05-10T14:23:03.087Z,10.88
2019-05-10T14:28:09.599Z,7.17
2019-05-10T14:33:17.262Z,7.83
2019-05-10T14:38:22.956Z,6.50
2019-05-10T14:43:28.578Z,5.92
2019-05-10T14:48:35.511Z,7.00
2019-05-10T14:53:41.038Z,4.60
2019-05-10T14:58:46.803Z,5.33
2019-05-10T15:03:52.357Z,4.20
2019-05-10T15:08:57.439Z,4.67
2019-05-10T15:14:03.478Z,3.52
2019-05-10T15:19:08.569Z,4.08
2019-05-10T15:24:13.566Z,3.93
2019-05-10T15:29:22.883Z,4.72
2019-05-10T15:34:25.611Z,5.30
2019-05-10T15:39:31.304Z,5.97
2019-05-10T15:44:36.370Z,4.55
2019-05-10T15:49:41.523Z,3.98
2019-05-10T15:54:47.209Z,8.50
2019-05-10T15:59:56.836Z,7.00
2019-05-10T16:05:00.010Z,5.60
2019-05-10T16:10:05.736Z,31.20
2019-05-10T16:15:13.619Z,23.77
2019-05-10T16:20:18.275Z,18.57
2019-05-10T16:25:23.420Z,21.95
2019-05-10T16:30:28.431Z,7.30
2019-05-10T16:35:38.817Z,10.45
2019-05-10T16:40:44.311Z,5.80
2019-05-10T16:45:47.935Z,7.20
2019-05-10T16:50:53.274Z,8.38
2019-05-10T16:55:58.637Z,15.40
2019-05-10T17:01:03.971Z,9.20
2019-05-10T17:06:09.766Z,7.97
2019-05-10T17:11:15.227Z,7.58
2019-05-10T17:16:20.375Z,11.85
2019-05-10T17:21:25.525Z,10.80
2019-05-10T17:26:32.806Z,8.68
2019-05-10T17:31:39.690Z,9.23
2019-05-10T17:36:45.377Z,5.93
2019-05-10T17:41:50.536Z,8.10
2019-05-10T17:46:57.478Z,8.98
2019-05-10T17:52:03.164Z,7.97
2019-05-10T17:57:10.772Z,8.70
2019-05-10T18:02:15.252Z,10.10
2019-05-10T18:07:20.403Z,9.05
2019-05-10T18:12:27.236Z,8.20
2019-05-10T18:17:32.737Z,8.80
2019-05-10T18:22:43.482Z,9.23
2019-05-10T18:27:45.266Z,8.50
2019-05-10T18:32:50.993Z,7.97
2019-05-10T18:37:59.610Z,11.85
2019-05-10T18:43:04.516Z,12.73
2019-05-10T18:48:10.205Z,13.32
2019-05-10T18:53:15.329Z,10.08
2019-05-10T18:58:23.402Z,11.88
2019-05-10T19:03:33.456Z,11.08
2019-05-10T19:08:34.995Z,10.40
2019-05-10T19:13:47.306Z,9.90
2019-05-10T19:18:47.397Z,10.45
2019-05-10T19:23:53.684Z,10.93
2019-05-10T19:29:05.040Z,10.53
2019-05-10T19:34:09.160Z,7.65
2019-05-10T19:39:13.657Z,9.03
2019-05-10T19:44:20.134Z,10.55
2019-05-10T19:49:25.510Z,12.37
2019-05-10T19:54:30.523Z,11.45
2019-05-10T19:59:35.853Z,13.37
2019-05-10T20:04:41.692Z,10.58
2019-05-10T20:09:47.137Z,16.82
2019-05-10T20:14:52.234Z,10.60
2019-05-10T20:19:57.380Z,10.10
2019-05-10T20:25:02.472Z,9.18
2019-05-10T20:30:08.253Z,9.75
2019-05-10T20:35:13.627Z,9.15
2019-05-10T20:40:18.955Z,10.70
2019-05-10T20:45:24.081Z,9.67
2019-05-10T20:50:29.597Z,8.60
2019-05-10T20:55:34.670Z,9.20
2019-05-10T21:00:39.769Z,9.00
2019-05-10T21:05:45.463Z,9.75
2019-05-10T21:10:50.507Z,11.25
2019-05-10T21:15:56.398Z,10.40
2019-05-10T21:21:01.991Z,11.90
2019-05-10T21:26:07.010Z,12.03
2019-05-10T21:31:12.442Z,20.32
2019-05-10T21:36:17.896Z,22.13
2019-05-10T21:41:23.284Z,22.00
2019-05-10T21:46:28.834Z,13.47
2019-05-10T21:51:34.041Z,16.97
2019-05-10T21:56:39.771Z,16.80
2019-05-10T22:01:45.268Z,11.27
2019-05-10T22:06:50.621Z,10.80
2019-05-10T22:11:59.361Z,11.55
2019-05-10T22:17:03.896Z,12.53
2019-05-10T22:22:08.967Z,13.18
2019-05-10T22:27:14.505Z,11.03
2019-05-10T22:32:19.775Z,12.85
2019-05-10T22:37:25.328Z,16.87
2019-05-10T22:42:30.607Z,11.95
2019-05-10T22:47:36.246Z,14.27
2019-05-10T22:52:41.375Z,13.83
2019-05-10T22:57:46.863Z,13.95
2019-05-10T23:02:52.797Z,13.00
2019-05-10T23:07:58.200Z,12.57
2019-05-10T23:13:04.065Z,13.33
2019-05-10T23:18:09.162Z,11.40
2019-05-10T23:23:14.882Z,10.37
2019-05-10T23:28:20.650Z,8.83
2019-05-10T23:33:26.301Z,12.00
2019-05-10T23:38:31.411Z,11.53
2019-05-10T23:43:36.726Z,10.97
2019-05-10T23:48:42.250Z,11.87
2019-05-10T23:53:47.750Z,10.73
2019-05-10T23:58:53.104Z,9.40
